Time;durP1;ratioP1;P1;durP2;ratioP2;P2;SDS_P1;SDS_P2;PMS_P1;PMS_P2;Temp;Humidity;BMP_temperature;BMP_pressure;BME280_temperature;BME280_humidity;BME280_pressure;Samples;Min_cycle;Max_cycle;Signal;HPM_P1;HPM_P2
2023/04/25 00:01:24;;;;;;;1.98;1.77;;;7.00;99.90;;;;;;4985337;28;20092;-76
2023/04/25 00:03:50;;;;;;;2.25;1.17;;;7.00;99.90;;;;;;4985294;28;20064;-76
2023/04/25 00:06:17;;;;;;;4.97;2.25;;;7.00;99.90;;;;;;4982200;28;20097;-76
2023/04/25 00:08:43;;;;;;;5.43;3.42;;;7.00;99.90;;;;;;4984196;28;20057;-76
2023/04/25 00:11:08;;;;;;;5.18;1.63;;;7.00;99.90;;;;;;4982892;28;20320;-76
2023/04/25 00:13:34;;;;;;;1.90;1.40;;;7.00;99.90;;;;;;4982982;28;20062;-76
2023/04/25 00:16:00;;;;;;;2.05;1.85;;;7.00;99.90;;;;;;4999043;28;20050;-76
2023/04/25 00:18:28;;;;;;;4.15;1.70;;;7.00;99.90;;;;;;5003579;28;20559;-76
2023/04/25 00:20:54;;;;;;;2.35;2.15;;;7.00;99.90;;;;;;5003558;28;20049;-76
2023/04/25 00:23:20;;;;;;;3.08;1.45;;;7.00;99.90;;;;;;5004179;28;20571;-76
2023/04/25 00:25:48;;;;;;;7.30;3.08;;;7.00;99.90;;;;;;5002461;28;20050;-76
2023/04/25 00:28:14;;;;;;;4.85;1.77;;;7.00;99.90;;;;;;5003874;28;20338;-76
2023/04/25 00:30:40;;;;;;;1.23;0.93;;;7.00;99.90;;;;;;5003404;28;20034;-76
2023/04/25 00:33:06;;;;;;;2.80;2.25;;;6.90;99.90;;;;;;5002166;28;20077;-76
2023/04/25 00:35:32;;;;;;;4.30;2.08;;;6.90;99.90;;;;;;5000817;28;20852;-76
2023/04/25 00:37:58;;;;;;;10.30;1.73;;;6.90;99.90;;;;;;5002499;28;20049;-76
2023/04/25 00:40:24;;;;;;;3.00;1.10;;;6.90;99.90;;;;;;5003534;28;20044;-76
2023/04/25 00:42:52;;;;;;;2.58;1.65;;;6.90;99.90;;;;;;5003332;28;20205;-76
2023/04/25 00:45:18;;;;;;;2.38;1.73;;;6.90;99.90;;;;;;5002837;28;20124;-76
2023/04/25 00:47:43;;;;;;;3.03;1.67;;;6.90;99.90;;;;;;4996628;28;20035;-76
2023/04/25 00:50:10;;;;;;;3.83;1.98;;;6.90;99.90;;;;;;4981471;28;20442;-76
2023/04/25 00:52:38;;;;;;;6.10;1.67;;;6.80;99.90;;;;;;4983523;28;20070;-76
2023/04/25 00:55:04;;;;;;;1.08;0.95;;;6.80;99.90;;;;;;4966140;28;20128;-76
2023/04/25 00:57:29;;;;;;;5.57;2.17;;;6.80;99.90;;;;;;4965790;28;20103;-76
2023/04/25 00:59:56;;;;;;;6.28;0.98;;;6.80;99.90;;;;;;5001788;28;20120;-76
2023/04/25 01:02:21;;;;;;;2.90;1.60;;;6.80;99.90;;;;;;5003161;28;20037;-76
2023/04/25 01:07:29;;;;;;;2.13;1.33;;;6.80;99.90;;;;;;4981949;26;20059;-76
2023/04/25 01:09:55;;;;;;;1.92;1.23;;;6.80;99.90;;;;;;4983316;28;20049;-76
2023/04/25 01:12:20;;;;;;;6.53;1.85;;;6.80;99.90;;;;;;4984633;28;20113;-76
2023/04/25 01:14:46;;;;;;;3.47;2.47;;;6.80;99.90;;;;;;4983878;28;20046;-77
2023/04/25 01:17:12;;;;;;;3.97;1.63;;;6.80;99.90;;;;;;4984370;28;20077;-76
2023/04/25 01:19:38;;;;;;;1.13;1.10;;;6.80;99.90;;;;;;4982890;28;20050;-77
2023/04/25 01:22:04;;;;;;;10.65;1.75;;;6.70;99.90;;;;;;4984418;28;20046;-77
2023/04/25 01:24:32;;;;;;;1.85;1.23;;;6.70;99.90;;;;;;4984204;28;20953;-76
2023/04/25 01:27:00;;;;;;;3.75;1.13;;;6.70;99.90;;;;;;4984546;28;20194;-76
2023/04/25 01:29:26;;;;;;;3.17;1.45;;;6.60;99.90;;;;;;4983930;28;20054;-76
2023/04/25 01:31:52;;;;;;;3.47;1.50;;;6.60;99.90;;;;;;4984883;28;20050;-76
2023/04/25 01:34:18;;;;;;;7.85;1.30;;;6.50;99.90;;;;;;4984193;28;20489;-77
2023/04/25 01:36:44;;;;;;;1.85;1.27;;;6.50;99.90;;;;;;4982534;28;20057;-77
2023/04/25 01:39:09;;;;;;;12.13;1.25;;;6.40;99.90;;;;;;4984122;28;20090;-77
2023/04/25 01:41:35;;;;;;;1.40;0.68;;;6.40;99.90;;;;;;4982205;28;20077;-76
2023/04/25 01:44:02;;;;;;;0.65;0.55;;;6.40;99.90;;;;;;4984605;28;20488;-77
2023/04/25 01:46:28;;;;;;;0.60;0.55;;;6.40;99.90;;;;;;4983247;28;20118;-76
2023/04/25 01:48:54;;;;;;;0.50;0.50;;;6.40;99.90;;;;;;4968617;28;20090;-76
2023/04/25 01:51:20;;;;;;;4.63;1.45;;;6.40;99.90;;;;;;4964128;28;20129;-76
2023/04/25 01:53:46;;;;;;;1.55;1.40;;;6.30;99.90;;;;;;4964817;28;20125;-77
2023/04/25 01:56:11;;;;;;;3.20;1.17;;;6.30;99.90;;;;;;4976257;28;20042;-77
2023/04/25 01:58:37;;;;;;;7.78;0.93;;;6.30;99.90;;;;;;4987733;28;20170;-76
2023/04/25 02:01:02;;;;;;;3.63;1.85;;;6.30;99.90;;;;;;4986657;28;20059;-76
2023/04/25 02:03:29;;;;;;;1.80;1.52;;;6.30;99.90;;;;;;4969529;28;20042;-77
2023/04/25 02:05:55;;;;;;;1.42;1.33;;;6.30;99.90;;;;;;4986646;28;20073;-77
2023/04/25 02:08:21;;;;;;;3.90;1.33;;;6.30;99.90;;;;;;4988139;28;20038;-76
2023/04/25 02:10:46;;;;;;;1.10;0.88;;;6.30;99.90;;;;;;4987364;28;20454;-76
2023/04/25 02:13:12;;;;;;;3.00;1.25;;;6.20;99.90;;;;;;4987685;28;20035;-77
2023/04/25 02:15:37;;;;;;;1.70;1.45;;;6.20;99.90;;;;;;4987547;28;20050;-76
2023/04/25 02:18:03;;;;;;;4.72;1.92;;;6.20;99.90;;;;;;4987282;28;20050;-77
2023/04/25 02:20:30;;;;;;;2.03;0.40;;;6.20;99.90;;;;;;4986161;28;20420;-76
2023/04/25 02:22:56;;;;;;;1.52;0.88;;;6.20;99.90;;;;;;4987728;28;20051;-77
2023/04/25 02:25:22;;;;;;;1.25;1.10;;;6.20;99.90;;;;;;4987654;28;20256;-76
2023/04/25 02:27:48;;;;;;;0.47;0.45;;;6.20;99.90;;;;;;4986254;28;20073;-76
2023/04/25 02:30:13;;;;;;;0.88;0.55;;;6.20;99.90;;;;;;4985795;28;20048;-77
2023/04/25 02:32:40;;;;;;;1.88;0.82;;;6.20;99.90;;;;;;4987402;28;20045;-77
2023/04/25 02:35:06;;;;;;;3.03;0.98;;;6.10;99.90;;;;;;4985448;28;20046;-77
2023/04/25 02:37:34;;;;;;;1.65;0.95;;;6.10;99.90;;;;;;4985916;28;20051;-77
2023/04/25 02:40:00;;;;;;;4.72;1.25;;;6.10;99.90;;;;;;4987330;28;20034;-76
2023/04/25 02:42:26;;;;;;;3.63;0.45;;;6.10;99.90;;;;;;4985398;28;20649;-77
2023/04/25 02:44:52;;;;;;;2.40;1.60;;;6.10;99.90;;;;;;4987438;28;20084;-77
2023/04/25 02:47:17;;;;;;;0.95;0.85;;;6.10;99.90;;;;;;4985933;28;20077;-76
2023/04/25 02:49:43;;;;;;;4.82;1.15;;;6.10;99.90;;;;;;4984453;28;20053;-76
2023/04/25 02:52:09;;;;;;;1.45;1.08;;;6.10;99.90;;;;;;4986830;28;20616;-76
2023/04/25 02:54:34;;;;;;;1.08;1.08;;;6.10;99.90;;;;;;4985551;28;20037;-76
2023/04/25 02:57:02;;;;;;;1.65;1.25;;;6.10;99.90;;;;;;4986619;28;20083;-77
2023/04/25 02:59:28;;;;;;;2.67;0.82;;;6.10;99.90;;;;;;4986965;28;20046;-76
2023/04/25 03:01:53;;;;;;;2.75;1.40;;;6.10;99.90;;;;;;4986906;28;20554;-77
2023/04/25 03:04:19;;;;;;;1.45;1.35;;;6.10;99.90;;;;;;4984383;28;20552;-77
2023/04/25 03:06:44;;;;;;;3.35;2.10;;;6.20;99.90;;;;;;4985613;28;20109;-77
2023/04/25 03:09:10;;;;;;;1.40;0.65;;;6.10;99.90;;;;;;4986717;28;20607;-77
2023/04/25 03:11:38;;;;;;;2.65;1.17;;;6.20;99.90;;;;;;4968999;28;20052;-76
2023/04/25 03:14:03;;;;;;;1.70;1.08;;;6.10;99.90;;;;;;4986038;28;20049;-77
2023/04/25 03:16:29;;;;;;;2.00;1.10;;;6.20;99.90;;;;;;4985278;28;20046;-77
2023/04/25 03:18:55;;;;;;;6.88;1.83;;;6.20;99.90;;;;;;4985070;28;20107;-77
2023/04/25 03:21:20;;;;;;;4.80;2.28;;;6.20;99.90;;;;;;4985943;28;20046;-77
2023/04/25 03:23:46;;;;;;;1.25;0.52;;;6.20;99.90;;;;;;4986215;28;20046;-77
2023/04/25 03:26:11;;;;;;;1.67;0.47;;;6.20;99.90;;;;;;4986377;28;20536;-76
2023/04/25 03:28:37;;;;;;;0.20;0.20;;;6.20;99.90;;;;;;4985786;28;20042;-76
2023/04/25 03:31:03;;;;;;;3.13;0.80;;;6.20;99.90;;;;;;4986017;28;20035;-77
2023/04/25 03:33:28;;;;;;;2.80;1.02;;;6.10;99.90;;;;;;4985928;28;20046;-77
2023/04/25 03:35:54;;;;;;;1.65;1.30;;;6.10;99.90;;;;;;4985523;28;20042;-77
2023/04/25 03:38:19;;;;;;;7.88;0.55;;;6.10;99.90;;;;;;4986137;28;20055;-78
2023/04/25 03:40:45;;;;;;;3.30;1.08;;;6.10;99.90;;;;;;4985674;28;20046;-77
2023/04/25 03:43:11;;;;;;;5.63;1.80;;;6.10;99.90;;;;;;4985144;28;20046;-76
2023/04/25 03:45:36;;;;;;;3.63;0.52;;;6.10;99.90;;;;;;4985252;28;20666;-76
2023/04/25 03:48:02;;;;;;;0.77;0.77;;;6.10;99.90;;;;;;4983097;28;20555;-77
2023/04/25 03:50:28;;;;;;;2.95;1.15;;;6.10;99.90;;;;;;4984453;28;20070;-77
2023/04/25 03:52:53;;;;;;;2.45;1.17;;;6.10;99.90;;;;;;4985124;28;20050;-77
2023/04/25 03:55:19;;;;;;;1.60;1.48;;;6.00;99.90;;;;;;4985549;28;20145;-77
2023/04/25 03:57:45;;;;;;;2.38;1.35;;;6.00;99.90;;;;;;4985448;28;20585;-76
2023/04/25 04:00:11;;;;;;;2.25;1.13;;;6.00;99.90;;;;;;4985424;28;20140;-76
2023/04/25 04:02:37;;;;;;;2.35;1.17;;;6.00;99.90;;;;;;4984949;28;20043;-76
2023/04/25 04:05:03;;;;;;;0.73;0.60;;;5.90;99.90;;;;;;4985017;28;20408;-76
2023/04/25 04:07:29;;;;;;;1.30;0.98;;;5.90;99.90;;;;;;4983801;28;20080;-77
2023/04/25 04:09:55;;;;;;;3.22;1.48;;;5.90;99.90;;;;;;4985223;28;20404;-77
2023/04/25 04:12:20;;;;;;;1.67;0.70;;;5.90;99.90;;;;;;4985997;28;20093;-77
2023/04/25 04:14:46;;;;;;;5.25;1.75;;;5.90;99.90;;;;;;4984082;28;20097;-77
2023/04/25 04:17:11;;;;;;;3.40;1.00;;;5.90;99.90;;;;;;4983839;28;20596;-77
2023/04/25 04:19:37;;;;;;;5.57;1.58;;;5.90;99.90;;;;;;4983270;28;20050;-76
2023/04/25 04:22:02;;;;;;;0.85;0.85;;;5.90;99.90;;;;;;4984935;28;20073;-77
2023/04/25 04:24:28;;;;;;;3.08;1.10;;;5.90;99.90;;;;;;4985292;28;20150;-77
2023/04/25 04:26:54;;;;;;;1.33;0.90;;;5.90;99.90;;;;;;4983899;28;20042;-77
2023/04/25 04:29:20;;;;;;;0.57;0.57;;;5.90;99.90;;;;;;4985767;28;20042;-77
2023/04/25 04:31:50;;;;;;;2.38;1.17;;;5.90;99.90;;;;;;4984820;28;20456;-76
2023/04/25 04:34:17;;;;;;;2.10;0.95;;;5.90;99.90;;;;;;4983805;28;20382;-77
2023/04/25 04:36:44;;;;;;;0.35;0.35;;;5.90;99.90;;;;;;4983496;28;20050;-77
2023/04/25 04:39:10;;;;;;;4.20;1.05;;;5.90;99.90;;;;;;4985016;28;20085;-77
2023/04/25 04:41:36;;;;;;;1.10;1.10;;;5.90;99.90;;;;;;4983057;28;20077;-77
2023/04/25 04:44:01;;;;;;;4.95;1.58;;;6.00;99.90;;;;;;4983871;28;20465;-78
2023/04/25 04:46:27;;;;;;;1.08;0.82;;;6.00;99.90;;;;;;4984176;28;20042;-77
2023/04/25 04:48:53;;;;;;;4.85;0.80;;;5.90;99.90;;;;;;4969470;28;20065;-77
2023/04/25 04:51:20;;;;;;;0.35;0.15;;;5.90;99.90;;;;;;4963556;28;20690;-76
2023/04/25 04:53:46;;;;;;;2.08;0.50;;;5.90;99.90;;;;;;4965835;28;20053;-77
2023/04/25 04:56:11;;;;;;;4.18;2.28;;;5.90;99.90;;;;;;4984386;28;20042;-77
2023/04/25 04:58:37;;;;;;;0.50;0.50;;;5.90;99.90;;;;;;4984383;28;20050;-77
2023/04/25 05:01:02;;;;;;;1.15;0.80;;;5.90;99.90;;;;;;4984374;28;20057;-77
2023/04/25 05:03:28;;;;;;;0.63;0.40;;;5.90;99.90;;;;;;4982922;28;20128;-78
2023/04/25 05:05:54;;;;;;;0.57;0.50;;;6.00;99.90;;;;;;4982200;28;20056;-77
2023/04/25 05:08:19;;;;;;;3.05;0.75;;;5.90;99.90;;;;;;4984826;28;20551;-76
2023/04/25 05:10:45;;;;;;;1.45;0.40;;;6.00;99.90;;;;;;4984310;28;20061;-76
2023/04/25 05:13:11;;;;;;;0.65;0.65;;;5.90;99.90;;;;;;4982760;28;20038;-77
2023/04/25 05:15:36;;;;;;;0.75;0.65;;;5.90;99.90;;;;;;4982078;28;20121;-77
2023/04/25 05:18:02;;;;;;;1.33;0.95;;;5.90;99.90;;;;;;4984438;28;20114;-77
2023/04/25 05:20:27;;;;;;;0.57;0.32;;;5.90;99.90;;;;;;4982032;28;20058;-77
2023/04/25 05:22:53;;;;;;;3.30;1.02;;;5.90;99.90;;;;;;4983011;28;20046;-77
2023/04/25 05:25:19;;;;;;;2.17;1.20;;;5.90;99.90;;;;;;4984084;28;20508;-76
2023/04/25 05:27:44;;;;;;;2.10;1.23;;;5.90;99.90;;;;;;4983922;28;20517;-77
2023/04/25 05:30:10;;;;;;;1.85;1.40;;;5.90;99.90;;;;;;4983957;28;20520;-77
2023/04/25 05:32:36;;;;;;;0.73;0.55;;;6.00;99.90;;;;;;4966409;28;20034;-77
2023/04/25 05:35:02;;;;;;;0.70;0.32;;;6.00;99.90;;;;;;4983531;28;20046;-76
2023/04/25 05:37:30;;;;;;;1.75;0.93;;;6.10;99.90;;;;;;4968634;28;20094;-77
2023/04/25 05:39:56;;;;;;;0.88;0.88;;;6.10;99.90;;;;;;4964671;28;20082;-78
2023/04/25 05:42:21;;;;;;;0.90;0.70;;;6.10;99.90;;;;;;4966580;28;20105;-78
2023/04/25 05:44:47;;;;;;;1.75;1.50;;;6.10;99.90;;;;;;4966149;28;20035;-78
2023/04/25 05:47:12;;;;;;;1.45;0.70;;;6.10;99.90;;;;;;4984223;28;20046;-78
2023/04/25 05:49:38;;;;;;;1.95;1.00;;;6.20;99.90;;;;;;4981293;28;20058;-78
2023/04/25 05:52:04;;;;;;;4.18;1.20;;;6.20;99.90;;;;;;4984326;28;20043;-78
2023/04/25 05:54:29;;;;;;;5.50;0.73;;;6.20;99.90;;;;;;4983354;28;20046;-77
2023/04/25 05:56:57;;;;;;;2.55;0.70;;;6.10;99.90;;;;;;4984099;28;20053;-77
2023/04/25 05:59:23;;;;;;;0.65;0.65;;;6.10;99.90;;;;;;4982705;28;20559;-77
2023/04/25 06:01:48;;;;;;;4.60;1.35;;;6.00;99.90;;;;;;4983699;28;20042;-77
2023/04/25 06:04:14;;;;;;;1.02;0.75;;;6.00;99.90;;;;;;4983003;28;20051;-77
2023/04/25 06:06:39;;;;;;;0.57;0.57;;;5.90;99.90;;;;;;4983477;28;20078;-78
2023/04/25 06:09:05;;;;;;;8.48;0.35;;;5.90;99.90;;;;;;4982051;28;20120;-78
2023/04/25 06:11:30;;;;;;;0.43;0.40;;;5.80;99.90;;;;;;4983165;28;20038;-78
2023/04/25 06:13:56;;;;;;;1.17;0.43;;;5.80;99.90;;;;;;4982030;28;20526;-78
2023/04/25 06:16:22;;;;;;;1.60;0.73;;;5.70;99.90;;;;;;4982005;28;20041;-78
2023/04/25 06:18:47;;;;;;;1.55;1.45;;;5.80;99.90;;;;;;4978196;28;20039;-77
2023/04/25 06:21:13;;;;;;;0.63;0.40;;;5.80;99.90;;;;;;4978629;28;20082;-79
2023/04/25 06:23:38;;;;;;;4.68;0.82;;;5.90;99.90;;;;;;4981594;28;20039;-78
2023/04/25 06:26:04;;;;;;;3.08;0.82;;;5.90;99.90;;;;;;4972432;28;20574;-78
2023/04/25 06:28:30;;;;;;;0.40;0.40;;;6.00;99.90;;;;;;4982666;28;20046;-78
2023/04/25 06:30:55;;;;;;;1.42;0.82;;;6.10;99.90;;;;;;4978120;28;20374;-78
2023/04/25 06:33:21;;;;;;;2.38;1.33;;;6.10;99.90;;;;;;4975758;28;20477;-79
2023/04/25 06:35:47;;;;;;;0.32;0.30;;;6.20;99.90;;;;;;4961446;28;20086;-78
2023/04/25 06:38:13;;;;;;;1.92;0.98;;;6.30;99.90;;;;;;4962967;28;20097;-78
2023/04/25 06:40:39;;;;;;;3.30;1.70;;;6.30;99.90;;;;;;4984894;28;20039;-78
2023/04/25 06:43:04;;;;;;;3.63;2.13;;;6.40;99.90;;;;;;4986442;28;20054;-78
2023/04/25 06:45:30;;;;;;;0.93;0.55;;;6.50;99.90;;;;;;4986872;28;20485;-78
2023/04/25 06:47:56;;;;;;;4.28;1.30;;;6.40;99.90;;;;;;4987371;28;20046;-78
2023/04/25 06:50:21;;;;;;;7.22;1.15;;;6.40;99.90;;;;;;4985554;28;20034;-78
2023/04/25 06:52:47;;;;;;;0.60;0.60;;;6.40;99.90;;;;;;4986233;28;20077;-78
2023/04/25 06:55:12;;;;;;;2.97;1.00;;;6.30;99.90;;;;;;4986971;28;20046;-78
2023/04/25 06:57:38;;;;;;;0.65;0.63;;;6.20;99.90;;;;;;4985263;28;20114;-78
2023/04/25 07:00:09;;;;;;;0.57;0.57;;;6.20;99.90;;;;;;4987488;28;20492;-78
2023/04/25 07:02:35;;;;;;;1.52;0.68;;;6.20;99.90;;;;;;4986259;28;20046;-78
2023/04/25 07:05:03;;;;;;;2.92;1.23;;;6.30;99.90;;;;;;4985763;28;20045;-78
2023/04/25 07:07:30;;;;;;;0.20;0.20;;;6.40;99.90;;;;;;4985590;28;20065;-79
2023/04/25 07:09:56;;;;;;;5.20;1.42;;;6.50;99.90;;;;;;4986132;28;20097;-78
2023/04/25 07:12:21;;;;;;;1.35;0.65;;;6.50;99.90;;;;;;4986791;28;20500;-78
2023/04/25 07:14:47;;;;;;;0.95;0.85;;;6.50;99.90;;;;;;4986322;28;20121;-78
2023/04/25 07:17:13;;;;;;;2.65;0.28;;;6.60;99.90;;;;;;4985252;28;20100;-78
2023/04/25 07:19:39;;;;;;;1.45;0.85;;;6.60;99.90;;;;;;4985544;28;20050;-78
2023/04/25 07:22:06;;;;;;;0.47;0.45;;;6.60;99.90;;;;;;4985934;28;20038;-78
2023/04/25 07:24:31;;;;;;;1.17;0.93;;;6.60;99.90;;;;;;4986310;28;20053;-78
2023/04/25 07:26:58;;;;;;;1.15;1.13;;;6.60;99.90;;;;;;4986100;28;20046;-78
2023/04/25 07:29:23;;;;;;;0.80;0.52;;;6.60;99.90;;;;;;4987085;28;20125;-78
2023/04/25 07:31:49;;;;;;;2.90;1.60;;;6.60;99.90;;;;;;4986176;28;20158;-78
2023/04/25 07:34:15;;;;;;;0.93;0.73;;;6.70;99.90;;;;;;4985401;28;20050;-79
2023/04/25 07:36:41;;;;;;;1.42;0.52;;;6.80;99.90;;;;;;4985987;28;20050;-79
2023/04/25 07:39:08;;;;;;;4.07;0.73;;;6.90;99.90;;;;;;4984106;28;20137;-79
2023/04/25 07:41:34;;;;;;;2.33;1.08;;;6.90;99.90;;;;;;4985258;28;20054;-80
2023/04/25 07:44:00;;;;;;;3.10;0.85;;;7.00;99.90;;;;;;4983659;28;20727;-79
2023/04/25 07:46:25;;;;;;;2.67;1.08;;;7.00;99.90;;;;;;4970808;28;20034;-79
2023/04/25 07:48:51;;;;;;;3.03;1.33;;;7.10;99.90;;;;;;4969679;28;20043;-78
2023/04/25 07:51:19;;;;;;;3.95;0.55;;;7.10;99.90;;;;;;4976070;28;20046;-79
2023/04/25 07:53:45;;;;;;;0.45;0.30;;;7.10;99.90;;;;;;4977607;28;20042;-78
2023/04/25 07:56:11;;;;;;;2.33;1.13;;;7.20;99.90;;;;;;4970725;28;20038;-78
2023/04/25 07:58:37;;;;;;;0.65;0.57;;;7.30;99.90;;;;;;4984418;28;20097;-79
2023/04/25 08:01:02;;;;;;;8.30;1.00;;;7.40;99.90;;;;;;4986049;28;20181;-78
2023/04/25 08:03:28;;;;;;;0.55;0.55;;;7.40;99.90;;;;;;4984356;28;20080;-79
2023/04/25 08:05:54;;;;;;;6.75;0.50;;;7.50;99.90;;;;;;4976718;28;20516;-79
2023/04/25 08:08:19;;;;;;;0.70;0.40;;;7.50;99.90;;;;;;4983940;28;20050;-79
2023/04/25 08:10:45;;;;;;;0.93;0.50;;;7.50;99.90;;;;;;4983125;28;20438;-79
2023/04/25 08:13:10;;;;;;;3.30;0.45;;;7.50;99.90;;;;;;4968452;28;20054;-79
2023/04/25 08:15:36;;;;;;;7.82;0.75;;;7.50;99.90;;;;;;4967907;28;20503;-80
2023/04/25 08:18:02;;;;;;;2.67;0.90;;;7.50;99.90;;;;;;4984913;28;20042;-81
2023/04/25 08:20:28;;;;;;;0.73;0.52;;;7.50;99.90;;;;;;4981475;28;20034;-80
2023/04/25 08:22:53;;;;;;;0.47;0.30;;;7.50;99.90;;;;;;4972982;28;20209;-80
2023/04/25 08:25:19;;;;;;;1.13;1.02;;;7.60;99.90;;;;;;4976122;28;20713;-80
2023/04/25 08:27:45;;;;;;;0.20;0.20;;;7.70;99.90;;;;;;4973573;28;20042;-78
2023/04/25 08:30:10;;;;;;;2.67;0.82;;;7.70;99.90;;;;;;4976306;28;20065;-78
2023/04/25 08:32:39;;;;;;;0.30;0.20;;;7.80;99.90;;;;;;4977414;28;20053;-80
2023/04/25 08:35:05;;;;;;;0.57;0.47;;;7.80;99.90;;;;;;4982508;28;20052;-80
2023/04/25 08:37:31;;;;;;;8.23;1.90;;;7.80;99.90;;;;;;4972721;28;20046;-79
2023/04/25 08:39:56;;;;;;;2.03;0.52;;;7.80;99.90;;;;;;4973337;28;20046;-80
2023/04/25 08:42:24;;;;;;;1.00;0.70;;;7.70;99.90;;;;;;4983405;28;20030;-79
2023/04/25 08:44:52;;;;;;;0.88;0.30;;;7.70;99.90;;;;;;4968114;28;20505;-79
2023/04/25 08:47:22;;;;;;;1.17;0.55;;;7.60;99.90;;;;;;4971849;28;20042;-78
2023/04/25 08:49:49;;;;;;;4.78;1.15;;;7.60;99.90;;;;;;4976841;28;20042;-79
2023/04/25 08:52:21;;;;;;;3.03;0.57;;;7.70;99.90;;;;;;4969931;28;20051;-79
2023/04/25 08:54:48;;;;;;;;;;;7.70;99.90;;;;;;4982013;28;20042;-77
2023/04/25 08:57:15;;;;;;;1.02;0.80;;;7.70;99.90;;;;;;4969654;28;19922;-79
2023/04/25 08:59:45;;;;;;;1.80;0.95;;;7.70;99.90;;;;;;4973841;28;20043;-79
2023/04/25 09:02:14;;;;;;;1.90;0.68;;;7.80;99.90;;;;;;4967312;28;20058;-79
2023/04/25 09:04:40;;;;;;;3.75;1.02;;;7.80;99.90;;;;;;4965325;28;20042;-80
2023/04/25 09:07:06;;;;;;;0.90;0.82;;;7.90;99.90;;;;;;4982206;28;20054;-79
2023/04/25 09:09:32;;;;;;;6.03;1.60;;;8.00;99.90;;;;;;4982288;28;20061;-80
2023/04/25 09:11:59;;;;;;;2.13;0.50;;;8.00;99.90;;;;;;4983853;28;20052;-80
2023/04/25 09:14:27;;;;;;;2.53;0.93;;;8.10;99.90;;;;;;4983765;28;20121;-79
2023/04/25 09:16:56;;;;;;;2.42;1.73;;;8.00;99.90;;;;;;4981919;28;20137;-79
2023/04/25 09:19:40;;;;;;;0.73;0.73;;;8.00;99.90;;;;;;4977836;28;20038;-79
2023/04/25 09:22:06;;;;;;;0.95;0.90;;;7.90;99.90;;;;;;4977162;28;20053;-80
2023/04/25 09:24:45;;;;;;;0.68;0.60;;;7.90;99.90;;;;;;4966102;28;20049;-79
2023/04/25 09:27:17;;;;;;;1.30;0.40;;;7.80;99.90;;;;;;4981451;28;20481;-79
2023/04/25 09:29:43;;;;;;;1.45;0.52;;;7.80;99.90;;;;;;4978783;28;20042;-80
2023/04/25 09:32:18;;;;;;;2.20;0.32;;;7.70;99.90;;;;;;4982324;28;20124;-79
2023/04/25 09:34:49;;;;;;;2.42;0.88;;;7.80;99.90;;;;;;4976756;28;20826;-79
2023/04/25 09:37:23;;;;;;;0.50;0.50;;;7.80;99.90;;;;;;4975620;28;20045;-80
2023/04/25 09:39:56;;;;;;;3.17;0.52;;;7.80;99.90;;;;;;4977917;28;20046;-79
2023/04/25 09:42:27;;;;;;;2.25;0.65;;;7.80;99.90;;;;;;4969859;28;20038;-79
2023/04/25 09:44:55;;;;;;;0.73;0.52;;;7.90;99.90;;;;;;4959607;28;20046;-78
2023/04/25 09:47:23;;;;;;;1.10;0.70;;;7.90;99.90;;;;;;4973025;28;20707;-79
2023/04/25 09:49:50;;;;;;;0.63;0.50;;;7.90;99.90;;;;;;4959482;28;20504;-79
2023/04/25 09:52:18;;;;;;;2.60;1.70;;;8.00;99.90;;;;;;4975765;28;20178;-80
2023/04/25 09:54:45;;;;;;;0.75;0.70;;;7.90;99.90;;;;;;4975481;28;21185;-79
2023/04/25 09:57:16;;;;;;;2.28;1.13;;;7.90;99.90;;;;;;4976026;28;20051;-80
2023/04/25 09:59:46;;;;;;;6.78;1.05;;;7.90;99.90;;;;;;4975631;28;20122;-80
2023/04/25 10:02:15;;;;;;;0.93;0.45;;;7.90;99.90;;;;;;4971821;28;20375;-80
2023/04/25 10:04:41;;;;;;;2.85;1.63;;;8.00;99.90;;;;;;4973378;28;20050;-80
2023/04/25 10:07:08;;;;;;;0.50;0.50;;;8.00;99.90;;;;;;4978846;28;20042;-79
2023/04/25 10:09:37;;;;;;;1.13;1.05;;;8.10;99.90;;;;;;4967747;28;20054;-80
2023/04/25 10:12:04;;;;;;;1.20;0.95;;;8.10;99.90;;;;;;4970888;28;20049;-79
2023/04/25 10:14:31;;;;;;;3.35;0.68;;;8.10;99.90;;;;;;4970469;28;20504;-81
2023/04/25 10:16:58;;;;;;;4.40;1.27;;;8.20;99.90;;;;;;4974924;28;20061;-79
2023/04/25 10:19:25;;;;;;;1.85;0.45;;;8.20;99.90;;;;;;4977214;28;20050;-80
2023/04/25 10:22:07;;;;;;;0.95;0.57;;;8.30;99.90;;;;;;4974661;28;20038;-79
2023/04/25 10:24:35;;;;;;;;;;;8.40;99.90;;;;;;4973791;28;20583;-80
2023/04/25 10:27:01;;;;;;;1.30;0.50;;;8.50;99.90;;;;;;4981921;28;20292;-80
2023/04/25 10:29:27;;;;;;;0.63;0.63;;;8.50;99.90;;;;;;4986487;28;20063;-79
2023/04/25 10:31:53;;;;;;;2.63;1.13;;;8.70;99.90;;;;;;4983603;28;20046;-79
2023/04/25 10:34:23;;;;;;;0.55;0.45;;;8.70;99.90;;;;;;4978636;28;20075;-79
2023/04/25 10:36:51;;;;;;;5.70;0.77;;;8.70;99.90;;;;;;4983792;28;20069;-79
2023/04/25 10:39:26;;;;;;;3.28;0.60;;;8.60;99.90;;;;;;4985067;28;20030;-79
2023/04/25 10:41:53;;;;;;;1.38;0.88;;;8.50;99.90;;;;;;4987059;28;20502;-79
2023/04/25 10:44:18;;;;;;;0.65;0.60;;;8.40;99.90;;;;;;4984916;28;20095;-79
2023/04/25 10:46:45;;;;;;;0.95;0.63;;;8.30;99.90;;;;;;4968606;28;20125;-79
2023/04/25 10:49:27;;;;;;;2.42;1.08;;;8.20;99.90;;;;;;4985713;28;20053;-79
2023/04/25 10:52:10;;;;;;;0.93;0.43;;;8.00;99.90;;;;;;4985608;28;20065;-79
2023/04/25 10:54:40;;;;;;;6.95;1.73;;;7.90;99.90;;;;;;4984662;28;20493;-79
2023/04/25 10:57:06;;;;;;;2.83;1.65;;;7.90;99.90;;;;;;4986047;28;20458;-79
2023/04/25 10:59:31;;;;;;;0.47;0.28;;;7.90;99.90;;;;;;4986127;28;20142;-79
2023/04/25 11:01:57;;;;;;;2.17;1.10;;;8.00;99.90;;;;;;4985865;28;20039;-79
2023/04/25 11:04:24;;;;;;;0.20;0.20;;;8.10;99.90;;;;;;4965426;28;20486;-78
2023/04/25 11:07:14;;;;;;;0.30;0.30;;;8.20;99.90;;;;;;4965528;28;20078;-79
2023/04/25 11:09:41;;;;;;;0.50;0.50;;;8.10;99.90;;;;;;4964231;28;20046;-79
2023/04/25 11:12:11;;;;;;;2.65;1.45;;;8.10;99.90;;;;;;4985412;28;20066;-79
2023/04/25 11:14:37;;;;;;;25.98;0.98;;;8.20;99.90;;;;;;4981822;28;20120;-79
2023/04/25 11:17:03;;;;;;;0.50;0.50;;;8.20;99.90;;;;;;4984491;28;20344;-79
2023/04/25 11:19:29;;;;;;;0.95;0.95;;;8.30;99.90;;;;;;4978722;28;20066;-79
2023/04/25 11:21:56;;;;;;;4.13;0.95;;;8.40;99.90;;;;;;4979076;28;20046;-80
2023/04/25 11:24:35;;;;;;;0.50;0.30;;;8.60;99.90;;;;;;4980804;28;20054;-80
2023/04/25 11:27:05;;;;;;;4.18;1.00;;;8.70;99.90;;;;;;4965878;28;20045;-79
2023/04/25 11:29:33;;;;;;;2.15;0.50;;;8.70;99.90;;;;;;4977392;28;20142;-80
2023/04/25 11:32:00;;;;;;;1.75;1.20;;;8.70;99.90;;;;;;4984403;28;20078;-81
2023/04/25 11:34:30;;;;;;;1.17;0.75;;;8.60;99.90;;;;;;4966538;28;20081;-81
2023/04/25 11:36:57;;;;;;;2.83;0.52;;;8.50;99.90;;;;;;4985029;28;20046;-81
2023/04/25 11:39:24;;;;;;;1.55;1.25;;;8.50;99.90;;;;;;4986838;28;20152;-81
2023/04/25 11:41:51;;;;;;;0.52;0.50;;;8.40;99.90;;;;;;4985755;28;20072;-81
2023/04/25 11:44:18;;;;;;;1.05;0.75;;;8.30;99.90;;;;;;4984606;28;20042;-81
2023/04/25 11:46:44;;;;;;;3.20;0.60;;;8.30;99.90;;;;;;4985238;28;20054;-81
2023/04/25 11:49:10;;;;;;;1.40;1.20;;;8.20;99.90;;;;;;4983178;28;20192;-81
2023/04/25 11:51:43;;;;;;;2.88;0.47;;;8.20;99.90;;;;;;4968019;28;20540;-81
2023/04/25 11:54:10;;;;;;;1.40;0.73;;;8.30;99.90;;;;;;4967796;28;20056;-80
2023/04/25 11:56:35;;;;;;;1.23;0.30;;;8.30;99.90;;;;;;4984895;28;20039;-81
2023/04/25 11:59:04;;;;;;;3.30;0.60;;;8.40;99.90;;;;;;4985682;28;20393;-81
2023/04/25 12:01:34;;;;;;;2.50;0.70;;;8.50;99.90;;;;;;4985439;28;20052;-81
2023/04/25 12:04:14;;;;;;;0.93;0.52;;;8.70;99.90;;;;;;4982463;28;20085;-81
2023/04/25 12:06:41;;;;;;;3.17;0.70;;;8.80;99.90;;;;;;4983385;28;20100;-81
2023/04/25 12:09:14;;;;;;;5.07;1.30;;;8.70;99.90;;;;;;4984766;28;20038;-81
2023/04/25 12:11:53;;;;;;;4.93;1.48;;;8.60;99.90;;;;;;4984273;28;20247;-81
2023/04/25 12:14:26;;;;;;;0.75;0.40;;;8.50;99.90;;;;;;4985120;28;20074;-81
2023/04/25 12:16:52;;;;;;;1.00;0.82;;;8.50;99.90;;;;;;4986033;28;20051;-81
2023/04/25 12:19:20;;;;;;;0.38;0.30;;;8.50;99.90;;;;;;4983619;28;20448;-81
2023/04/25 12:21:46;;;;;;;0.80;0.70;;;8.50;99.90;;;;;;4983599;28;20061;-81
2023/04/25 12:24:14;;;;;;;3.28;1.05;;;8.60;99.90;;;;;;4983952;28;20527;-81
2023/04/25 12:26:58;;;;;;;2.13;0.38;;;8.70;99.90;;;;;;4979462;28;20057;-81
2023/04/25 12:29:25;;;;;;;0.88;0.38;;;8.80;99.90;;;;;;4985532;28;20050;-81
2023/04/25 12:31:53;;;;;;;0.85;0.35;;;8.90;99.90;;;;;;4964567;28;20053;-81
2023/04/25 12:34:19;;;;;;;1.08;0.73;;;8.90;99.90;;;;;;4979258;28;20043;-80
2023/04/25 12:36:45;;;;;;;2.60;0.55;;;9.00;99.90;;;;;;4957473;28;20042;-81
2023/04/25 12:39:15;;;;;;;0.65;0.40;;;9.00;99.90;;;;;;4973395;28;20129;-81
2023/04/25 12:41:41;;;;;;;1.40;1.33;;;9.00;99.90;;;;;;4975739;28;20112;-81
2023/04/25 12:44:06;;;;;;;1.05;0.50;;;9.10;99.90;;;;;;4975489;28;20034;-81
2023/04/25 12:46:32;;;;;;;2.15;0.40;;;9.10;99.90;;;;;;4973975;28;20078;-81
2023/04/25 12:48:58;;;;;;;0.50;0.30;;;9.10;99.90;;;;;;4953172;28;20043;-80
2023/04/25 12:51:24;;;;;;;2.60;0.90;;;9.10;99.90;;;;;;4970327;28;20126;-81
2023/04/25 12:53:51;;;;;;;1.48;0.80;;;9.00;99.90;;;;;;4973477;28;20085;-80
2023/04/25 12:56:17;;;;;;;1.63;0.63;;;9.00;99.90;;;;;;4970996;28;20039;-81
2023/04/25 12:58:44;;;;;;;4.43;1.52;;;9.10;99.90;;;;;;4968045;28;20054;-80